Time;durP1;ratioP1;P1;durP2;ratioP2;P2;SDS_P1;SDS_P2;PMS_P1;PMS_P2;Temp;Humidity;BMP_temperature;BMP_pressure;BME280_temperature;BME280_humidity;BME280_pressure;Samples;Min_cycle;Max_cycle;Signal;HPM_P1;HPM_P2
2021/09/25 00:02:25;;;;;;;8.45;4.90;;;;;;;8.81;93.44;93471.03;5070681;28;20051;-78
2021/09/25 00:04:51;;;;;;;8.73;5.38;;;;;;;8.68;95.21;93472.56;5074083;28;20455;-78
2021/09/25 00:07:18;;;;;;;9.85;6.43;;;;;;;8.46;96.76;93474.41;5078726;28;20469;-78
2021/09/25 00:09:45;;;;;;;10.52;5.85;;;;;;;8.39;96.41;93458.22;5080111;28;20458;-78
2021/09/25 00:12:13;;;;;;;11.82;5.47;;;;;;;8.35;97.22;93472.38;5090728;28;20052;-78
2021/09/25 00:14:40;;;;;;;7.05;5.15;;;;;;;8.48;96.42;93475.00;5075508;28;20049;-79
2021/09/25 00:17:10;;;;;;;6.75;4.75;;;;;;;8.49;95.79;93463.78;5078507;28;20055;-78
2021/09/25 00:19:38;;;;;;;8.30;5.80;;;;;;;8.41;95.86;93449.38;5090539;28;20097;-78
2021/09/25 00:22:06;;;;;;;9.82;5.65;;;;;;;8.63;95.51;93474.13;5084806;28;20082;-78
2021/09/25 00:24:33;;;;;;;9.48;5.47;;;;;;;8.55;94.62;93463.06;5070359;28;20452;-78
2021/09/25 00:27:00;;;;;;;7.85;5.45;;;;;;;8.66;95.27;93479.63;5070397;28;20045;-79
2021/09/25 00:29:27;;;;;;;9.57;5.70;;;;;;;8.46;94.52;93446.25;5103513;28;20371;-78
2021/09/25 00:31:54;;;;;;;7.22;4.65;;;;;;;8.65;95.06;93487.50;5110680;28;20100;-78
2021/09/25 00:34:22;;;;;;;6.85;4.35;;;;;;;8.67;94.45;93478.66;5110833;28;20070;-78
2021/09/25 00:36:49;;;;;;;7.90;4.45;;;;;;;8.67;94.54;93488.91;5110385;28;20044;-79
2021/09/25 00:39:16;;;;;;;6.00;4.45;;;;;;;8.73;93.31;93486.56;5103634;28;20440;-79
2021/09/25 00:41:43;;;;;;;5.93;3.58;;;;;;;8.77;93.08;93475.75;5089962;28;20090;-78
2021/09/25 00:44:10;;;;;;;6.13;4.03;;;;;;;8.84;93.75;93487.78;5090227;28;20055;-79
2021/09/25 00:46:37;;;;;;;7.40;4.43;;;;;;;8.69;93.43;93466.47;5089908;28;20040;-78
2021/09/25 00:49:04;;;;;;;7.82;4.32;;;;;;;8.76;93.53;93488.75;5089734;28;20052;-78
2021/09/25 00:51:33;;;;;;;7.40;5.22;;;;;;;8.72;94.03;93487.53;5090014;28;20102;-78
2021/09/25 00:54:00;;;;;;;6.30;5.13;;;;;;;8.73;94.12;93489.13;5089889;28;20063;-78
2021/09/25 00:56:27;;;;;;;7.05;5.07;;;;;;;8.68;94.50;93494.81;5090144;28;20052;-78
2021/09/25 00:58:54;;;;;;;8.30;5.85;;;;;;;8.66;94.14;93484.75;5090298;28;20048;-78
2021/09/25 01:01:21;;;;;;;8.10;4.85;;;;;;;8.64;94.56;93489.28;5089826;28;20118;-78
2021/09/25 01:03:48;;;;;;;6.25;4.18;;;;;;;8.64;93.78;93486.72;5089551;28;20044;-78
2021/09/25 01:06:15;;;;;;;7.47;4.82;;;;;;;8.59;94.25;93491.63;5089636;28;20055;-78
2021/09/25 01:08:43;;;;;;;13.45;7.22;;;;;;;8.66;93.41;93484.00;5089867;28;20044;-79
2021/09/25 01:11:10;;;;;;;15.27;9.07;;;;;;;8.63;93.15;93486.91;5089492;28;20492;-79
2021/09/25 01:13:36;;;;;;;13.75;8.38;;;;;;;8.59;93.57;93493.38;5080553;28;20056;-78
2021/09/25 01:16:04;;;;;;;11.45;6.65;;;;;;;8.48;93.95;93490.34;5069479;28;20523;-79
2021/09/25 01:18:30;;;;;;;11.50;7.05;;;;;;;8.42;94.59;93496.22;5069377;28;20052;-79
2021/09/25 01:21:05;;;;;;;9.88;6.35;;;;;;;8.41;94.77;93492.09;5069200;28;20063;-79
2021/09/25 01:23:32;;;;;;;10.60;6.07;;;;;;;8.25;94.96;93488.84;5074809;28;20514;-79
2021/09/25 01:26:00;;;;;;;7.82;5.78;;;;;;;8.33;95.65;93505.06;5089451;28;20180;-79
2021/09/25 01:28:27;;;;;;;6.93;5.00;;;;;;;8.22;95.04;93485.88;5097457;28;20159;-79
2021/09/25 01:30:54;;;;;;;8.77;5.28;;;;;;;8.23;95.11;93495.13;5109821;28;20043;-79
2021/09/25 01:33:25;;;;;;;8.50;5.72;;;;;;;8.13;94.65;93490.34;5103358;28;20052;-79
2021/09/25 01:35:52;;;;;;;7.28;5.18;;;;;;;8.13;95.52;93505.72;5089110;28;20063;-79
2021/09/25 01:38:21;;;;;;;7.18;4.65;;;;;;;8.13;96.19;93516.75;5089149;28;20048;-79
2021/09/25 01:40:48;;;;;;;7.00;4.80;;;;;;;8.07;96.54;93525.19;5089298;28;20052;-79
2021/09/25 01:43:16;;;;;;;10.25;5.50;;;;;;;8.11;96.00;93523.03;5089550;28;20429;-79
2021/09/25 01:45:43;;;;;;;8.10;5.05;;;;;;;8.04;96.25;93524.75;5089684;28;20125;-79
2021/09/25 01:48:10;;;;;;;9.95;4.78;;;;;;;8.15;95.53;93526.81;5089210;28;20044;-79
2021/09/25 01:50:37;;;;;;;6.57;4.70;;;;;;;8.04;96.45;93522.97;5088949;28;20044;-79
2021/09/25 01:53:04;;;;;;;8.73;5.20;;;;;;;8.10;95.66;93527.34;5089255;28;20052;-79
2021/09/25 01:55:33;;;;;;;13.38;7.85;;;;;;;8.08;96.21;93531.06;5089043;28;20052;-79
2021/09/25 01:58:00;;;;;;;21.27;12.65;;;;;;;8.02;96.50;93527.50;5089057;28;20048;-78
2021/09/25 02:00:27;;;;;;;61.38;34.17;;;;;;;8.05;96.67;93532.22;5091810;28;20089;-78
2021/09/25 02:02:54;;;;;;;21.30;12.43;;;;;;;8.00;96.85;93537.09;5093375;28;20059;-78
2021/09/25 02:05:22;;;;;;;22.13;13.50;;;;;;;8.10;96.40;93540.13;5093230;28;20063;-78
2021/09/25 02:07:49;;;;;;;18.50;10.05;;;;;;;8.07;96.24;93543.09;5093342;28;20102;-78
2021/09/25 02:10:16;;;;;;;11.05;6.63;;;;;;;8.02;95.94;93547.97;5093118;28;20047;-78
2021/09/25 02:12:45;;;;;;;9.15;6.20;;;;;;;7.96;95.94;93554.59;5093161;28;20105;-78
2021/09/25 02:15:12;;;;;;;9.20;5.28;;;;;;;7.92;96.36;93561.03;5093029;28;20144;-79
2021/09/25 02:17:40;;;;;;;10.38;4.70;;;;;;;7.87;96.46;93555.72;5092548;28;20497;-79
2021/09/25 02:20:09;;;;;;;8.52;4.78;;;;;;;7.86;96.00;93546.44;5093252;28;20044;-78
2021/09/25 02:22:37;;;;;;;7.95;4.65;;;;;;;7.87;95.58;93553.94;5092712;28;20108;-79
2021/09/25 02:25:04;;;;;;;7.60;4.65;;;;;;;7.94;95.13;93555.75;5092514;28;20098;-79
2021/09/25 02:27:31;;;;;;;7.22;4.30;;;;;;;7.98;94.90;93551.84;5092850;28;20412;-78
2021/09/25 02:30:00;;;;;;;8.07;4.63;;;;;;;7.95;95.14;93553.03;5113040;28;20092;-78
2021/09/25 02:32:26;;;;;;;6.47;3.80;;;;;;;7.96;94.63;93556.38;5112947;28;20047;-78
2021/09/25 02:34:53;;;;;;;7.72;4.18;;;;;;;7.88;94.74;93555.50;5112770;28;20047;-78
2021/09/25 02:37:20;;;;;;;6.57;4.32;;;;;;;7.88;94.66;93552.94;5113189;28;20054;-78
2021/09/25 02:39:47;;;;;;;9.23;5.00;;;;;;;7.84;94.86;93544.09;5112736;28;20500;-78
2021/09/25 02:42:14;;;;;;;7.05;3.97;;;;;;;7.89;94.85;93557.13;5112656;28;20100;-78
2021/09/25 02:44:40;;;;;;;7.15;4.13;;;;;;;7.78;94.90;93539.69;5112729;28;20048;-78
2021/09/25 02:47:08;;;;;;;5.88;3.65;;;;;;;7.91;94.65;93558.69;5112814;28;20446;-78
2021/09/25 02:49:35;;;;;;;6.97;3.90;;;;;;;7.94;94.79;93563.44;5112689;28;20105;-78
2021/09/25 02:52:02;;;;;;;7.20;4.20;;;;;;;7.86;95.02;93559.22;5112700;28;20044;-78
2021/09/25 02:54:29;;;;;;;6.90;4.05;;;;;;;7.84;95.20;93567.09;5112695;28;20096;-78
2021/09/25 02:56:56;;;;;;;7.18;3.95;;;;;;;7.82;95.32;93563.16;5112706;28;20105;-78
2021/09/25 02:59:23;;;;;;;7.03;4.60;;;;;;;7.77;95.57;93573.91;5112339;28;20495;-78
2021/09/25 03:01:50;;;;;;;8.25;4.63;;;;;;;7.77;95.58;93578.25;5112286;28;20044;-78
2021/09/25 03:04:18;;;;;;;10.88;4.85;;;;;;;7.55;96.19;93552.66;5112066;28;20048;-78
2021/09/25 03:06:45;;;;;;;6.70;4.82;;;;;;;7.72;95.89;93587.25;5112100;28;20070;-78
2021/09/25 03:09:11;;;;;;;7.20;4.57;;;;;;;7.69;96.25;93582.50;5112268;28;20420;-78
2021/09/25 03:11:39;;;;;;;8.00;4.95;;;;;;;7.38;95.97;93536.75;5110696;28;20500;-78
2021/09/25 03:14:06;;;;;;;10.25;4.97;;;;;;;7.64;96.20;93581.47;5076335;27;20081;-78
2021/09/25 03:16:32;;;;;;;9.32;5.53;;;;;;;7.51;97.01;93580.38;5091654;28;20051;-79
2021/09/25 03:18:59;;;;;;;10.80;6.00;;;;;;;7.47;97.36;93579.94;5091830;28;20044;-79
2021/09/25 03:21:27;;;;;;;13.10;7.13;;;;;;;7.46;97.92;93590.34;5091491;28;20044;-78
2021/09/25 03:23:54;;;;;;;12.25;6.75;;;;;;;7.49;97.37;93585.66;5091837;28;20047;-77
2021/09/25 03:26:21;;;;;;;13.85;7.55;;;;;;;7.48;97.84;93594.31;5091614;28;20074;-77
2021/09/25 03:28:48;;;;;;;10.63;7.03;;;;;;;7.26;96.84;93550.00;5102914;28;20043;-77
2021/09/25 03:31:15;;;;;;;11.75;7.30;;;;;;;7.54;96.91;93585.09;5111988;28;20047;-77
2021/09/25 03:33:41;;;;;;;12.70;7.88;;;;;;;7.46;97.67;93588.56;5111542;28;20058;-77
2021/09/25 03:36:08;;;;;;;11.90;7.75;;;;;;;7.18;99.51;93580.78;5111823;28;20416;-79
2021/09/25 03:38:36;;;;;;;13.60;8.00;;;;;;;7.29;99.74;93595.66;5111764;28;20447;-78
2021/09/25 03:41:04;;;;;;;16.13;8.32;;;;;;;7.28;100.00;93588.16;5111701;28;20052;-79
2021/09/25 03:43:31;;;;;;;17.52;9.65;;;;;;;7.20;100.00;93579.66;5111467;28;20096;-79
2021/09/25 03:45:58;;;;;;;17.10;9.02;;;;;;;7.26;100.00;93601.13;5111203;28;20448;-78
2021/09/25 03:48:25;;;;;;;15.65;9.48;;;;;;;7.27;100.00;93600.16;5111489;28;20050;-77
2021/09/25 03:50:53;;;;;;;16.85;9.88;;;;;;;7.37;99.23;93604.19;5111754;28;20450;-78
2021/09/25 03:53:20;;;;;;;16.67;9.43;;;;;;;7.36;99.67;93598.28;5111356;28;20049;-78
2021/09/25 03:55:48;;;;;;;22.02;9.90;;;;;;;7.43;99.58;93604.28;5111277;28;20043;-77
2021/09/25 03:58:15;;;;;;;17.67;9.63;;;;;;;7.42;99.15;93607.00;5111109;28;20479;-77
2021/09/25 04:00:43;;;;;;;17.08;10.18;;;;;;;7.38;100.00;93598.91;5105139;28;20085;-78
2021/09/25 04:03:10;;;;;;;21.17;9.93;;;;;;;7.33;100.00;93599.44;5090315;28;20508;-77
2021/09/25 04:05:37;;;;;;;21.55;10.18;;;;;;;7.40;99.43;93614.84;5084255;28;20101;-77
2021/09/25 04:08:05;;;;;;;18.15;10.23;;;;;;;7.41;99.51;93615.66;5090878;28;20489;-79
2021/09/25 04:10:32;;;;;;;19.02;9.80;;;;;;;7.41;99.12;93613.88;5090489;28;20055;-78
2021/09/25 04:13:00;;;;;;;18.30;10.98;;;;;;;7.34;98.97;93602.78;5090758;28;20389;-77
2021/09/25 04:15:28;;;;;;;17.75;9.48;;;;;;;7.41;98.95;93618.19;5090497;28;20052;-78
2021/09/25 04:17:55;;;;;;;20.35;10.10;;;;;;;7.44;98.33;93620.38;5090325;28;20051;-78
2021/09/25 04:20:21;;;;;;;20.08;9.20;;;;;;;7.36;98.49;93628.94;5090268;28;20051;-78
2021/09/25 04:22:48;;;;;;;19.58;9.00;;;;;;;7.33;98.08;93632.66;5090227;28;20408;-78
2021/09/25 04:25:15;;;;;;;17.67;9.60;;;;;;;7.19;98.43;93628.38;5090336;28;20047;-79
2021/09/25 04:27:42;;;;;;;18.40;9.38;;;;;;;7.13;99.07;93627.31;5090501;28;20146;-79
2021/09/25 04:30:12;;;;;;;15.55;8.38;;;;;;;7.16;98.83;93633.81;5090552;28;20066;-79
2021/09/25 04:32:38;;;;;;;17.33;8.88;;;;;;;7.12;99.76;93647.94;5089927;28;20500;-79
2021/09/25 04:35:05;;;;;;;16.85;7.90;;;;;;;7.12;100.00;93648.72;5090230;28;20040;-79
2021/09/25 04:37:32;;;;;;;20.60;9.85;;;;;;;7.09;100.00;93652.41;5090066;28;20044;-79
2021/09/25 04:40:00;;;;;;;15.68;8.63;;;;;;;7.13;100.00;93644.41;5090112;28;20051;-77
2021/09/25 04:42:27;;;;;;;16.73;9.40;;;;;;;7.20;100.00;93658.84;5090464;28;20036;-78
2021/09/25 04:44:53;;;;;;;21.73;9.52;;;;;;;7.21;100.00;93660.44;5090296;28;20416;-78
2021/09/25 04:47:22;;;;;;;17.95;8.25;;;;;;;7.17;100.00;93651.53;5090261;28;20098;-80
2021/09/25 04:49:48;;;;;;;18.13;7.97;;;;;;;7.32;100.00;93664.28;5089779;28;20089;-80
2021/09/25 04:52:15;;;;;;;13.02;7.40;;;;;;;7.34;100.00;93659.00;5090229;28;20051;-79
2021/09/25 04:54:43;;;;;;;13.65;7.35;;;;;;;7.41;100.00;93653.97;5089885;28;20048;-78
2021/09/25 04:57:09;;;;;;;15.27;8.82;;;;;;;7.43;100.00;93672.47;5089945;28;20055;-77
2021/09/25 04:59:36;;;;;;;18.55;8.38;;;;;;;7.33;100.00;93665.88;5089823;28;20117;-77
2021/09/25 05:02:03;;;;;;;13.70;7.75;;;;;;;7.09;100.00;93666.97;5089631;28;20097;-77
2021/09/25 05:04:31;;;;;;;16.42;9.27;;;;;;;7.30;100.00;93663.69;5085577;28;20113;-79
2021/09/25 05:06:58;;;;;;;13.27;7.35;;;;;;;7.35;100.00;93670.81;5087371;28;20064;-78
2021/09/25 05:09:25;;;;;;;17.73;9.23;;;;;;;7.50;100.00;93663.13;5089346;28;20040;-77
2021/09/25 05:11:53;;;;;;;12.07;7.60;;;;;;;7.52;100.00;93673.16;5089725;28;20054;-78
2021/09/25 05:14:20;;;;;;;12.70;7.90;;;;;;;7.52;100.00;93691.06;5089780;28;20408;-78
2021/09/25 05:16:47;;;;;;;14.43;6.97;;;;;;;7.60;100.00;93676.41;5089505;28;20433;-77
2021/09/25 05:19:14;;;;;;;13.35;7.07;;;;;;;7.47;100.00;93676.28;5089268;28;20044;-77
2021/09/25 05:21:42;;;;;;;14.60;8.60;;;;;;;7.72;100.00;93671.63;5089116;28;20645;-79
2021/09/25 05:24:09;;;;;;;18.55;7.93;;;;;;;7.79;100.00;93678.59;5089541;28;20048;-79
2021/09/25 05:26:36;;;;;;;14.98;8.30;;;;;;;7.87;100.00;93683.59;5089350;28;20056;-78
2021/09/25 05:29:03;;;;;;;13.38;8.50;;;;;;;8.00;100.00;93681.16;5089465;28;20089;-78
2021/09/25 05:31:31;;;;;;;17.92;9.50;;;;;;;8.10;100.00;93693.66;5089400;28;20056;-78
2021/09/25 05:33:58;;;;;;;13.13;8.45;;;;;;;8.19;99.71;93696.13;5088347;28;20215;-78
2021/09/25 05:36:25;;;;;;;13.85;8.68;;;;;;;8.31;97.89;93681.84;5089520;28;20044;-78
2021/09/25 05:38:53;;;;;;;15.88;7.95;;;;;;;8.48;98.42;93695.16;5089413;28;20059;-77
2021/09/25 05:41:20;;;;;;;13.68;8.90;;;;;;;8.52;98.67;93703.31;5089268;28;20101;-77
2021/09/25 05:43:50;;;;;;;14.05;7.93;;;;;;;8.62;98.42;93685.88;5089092;28;20048;-77
2021/09/25 05:46:17;;;;;;;15.10;8.38;;;;;;;8.67;97.86;93691.22;5089041;28;20480;-78
2021/09/25 05:48:44;;;;;;;13.27;7.47;;;;;;;8.90;96.67;93694.53;5088809;28;20489;-78
2021/09/25 05:51:12;;;;;;;15.40;8.18;;;;;;;9.03;95.02;93697.19;5089290;28;20048;-78
2021/09/25 05:53:39;;;;;;;13.38;6.90;;;;;;;9.14;95.40;93702.75;5089076;28;20040;-78
2021/09/25 05:56:07;;;;;;;10.32;6.07;;;;;;;9.31;95.98;93705.84;5089163;28;20746;-78
2021/09/25 05:58:34;;;;;;;11.63;7.45;;;;;;;9.33;97.26;93714.13;5089039;28;20055;-78
2021/09/25 06:01:01;;;;;;;11.70;7.28;;;;;;;9.47;96.91;93705.53;5088795;28;20040;-79
2021/09/25 06:03:28;;;;;;;9.10;6.20;;;;;;;9.53;94.66;93692.91;5089213;28;20459;-79
2021/09/25 06:05:55;;;;;;;12.35;7.05;;;;;;;9.76;94.39;93708.00;5088729;28;20424;-78
2021/09/25 06:08:21;;;;;;;12.18;7.20;;;;;;;9.93;93.91;93711.00;5088986;28;20052;-79
2021/09/25 06:10:48;;;;;;;22.05;11.82;;;;;;;10.11;94.70;93709.69;5088690;28;20097;-79
2021/09/25 06:13:16;;;;;;;26.70;14.15;;;;;;;10.33;91.70;93712.09;5088691;28;20497;-79
2021/09/25 06:15:44;;;;;;;37.88;20.02;;;;;;;10.53;93.57;93715.50;5088988;28;20109;-79
2021/09/25 06:18:12;;;;;;;26.65;13.80;;;;;;;10.64;93.67;93723.63;5088586;28;20139;-79
2021/09/25 06:20:39;;;;;;;29.05;13.93;;;;;;;10.68;92.31;93707.63;5088354;28;20056;-79
2021/09/25 06:23:06;;;;;;;33.13;17.58;;;;;;;11.05;92.54;93722.63;5088602;28;20060;-79
2021/09/25 06:25:34;;;;;;;34.72;17.58;;;;;;;10.66;92.21;93626.59;5088825;28;20094;-79
2021/09/25 06:28:01;;;;;;;48.50;22.33;;;;;;;11.60;91.21;93731.81;5088809;28;20071;-80
2021/09/25 06:30:30;;;;;;;46.17;21.95;;;;;;;11.84;88.68;93724.41;5088836;28;20044;-79
2021/09/25 06:32:56;;;;;;;44.45;21.85;;;;;;;11.90;88.90;93709.94;5088303;28;20052;-79
2021/09/25 06:35:23;;;;;;;46.83;23.40;;;;;;;12.09;86.77;93705.69;5088522;28;20048;-79
2021/09/25 06:37:50;;;;;;;32.35;17.70;;;;;;;12.45;84.02;93726.69;5088741;28;20397;-80
2021/09/25 06:40:17;;;;;;;35.55;17.83;;;;;;;12.66;83.39;93717.84;5088604;28;20052;-80
2021/09/25 06:42:43;;;;;;;28.10;13.50;;;;;;;13.03;79.83;93734.41;5088350;28;20550;-80
2021/09/25 06:45:11;;;;;;;26.23;11.18;;;;;;;13.15;79.61;93722.38;5088825;28;20090;-80
2021/09/25 06:47:39;;;;;;;26.70;13.77;;;;;;;13.44;78.21;93735.63;5092058;28;20055;-79
2021/09/25 06:50:07;;;;;;;23.38;12.40;;;;;;;13.57;77.89;93710.69;5092206;28;20489;-80
2021/09/25 06:52:34;;;;;;;31.33;14.13;;;;;;;13.95;75.96;93716.59;5091552;28;20093;-80
2021/09/25 06:55:01;;;;;;;25.67;10.65;;;;;;;14.10;72.63;93713.63;5092370;28;20044;-80
2021/09/25 06:57:29;;;;;;;17.45;8.27;;;;;;;14.26;69.52;93704.50;5092064;28;20044;-80
2021/09/25 06:59:57;;;;;;;19.33;8.98;;;;;;;14.72;69.13;93740.25;5091874;28;20455;-80
2021/09/25 07:02:24;;;;;;;15.25;7.15;;;;;;;14.93;69.05;93738.94;5092058;28;20413;-80
2021/09/25 07:04:52;;;;;;;16.23;7.55;;;;;;;15.15;68.24;93728.06;5091968;28;20056;-80
2021/09/25 07:07:19;;;;;;;17.13;7.53;;;;;;;15.45;65.99;93738.28;5091556;28;20060;-80
2021/09/25 07:09:46;;;;;;;17.17;7.78;;;;;;;15.70;66.08;93739.03;5091924;28;20413;-80
2021/09/25 07:12:13;;;;;;;15.60;7.82;;;;;;;15.92;64.88;93746.19;5091708;28;20072;-81
2021/09/25 07:14:40;;;;;;;15.85;7.82;;;;;;;15.92;61.32;93718.47;5091706;28;20047;-80
2021/09/25 07:17:06;;;;;;;17.95;7.28;;;;;;;16.33;62.96;93735.84;5091427;28;20063;-80
2021/09/25 07:19:33;;;;;;;21.48;9.20;;;;;;;16.52;60.99;93724.25;5091630;28;20447;-80
2021/09/25 07:22:02;;;;;;;23.75;10.60;;;;;;;16.85;61.58;93734.88;5091729;28;20047;-81
2021/09/25 07:24:28;;;;;;;35.95;15.82;;;;;;;17.08;61.00;93738.38;5091981;28;20105;-81
2021/09/25 07:26:55;;;;;;;46.75;21.38;;;;;;;16.99;63.12;93724.19;5091362;28;20056;-80
2021/09/25 07:29:22;;;;;;;53.15;23.73;;;;;;;17.22;64.61;93736.25;5091293;28;20044;-80
2021/09/25 07:31:49;;;;;;;48.60;22.08;;;;;;;17.25;63.27;93730.56;5091463;28;20044;-80
2021/09/25 07:34:16;;;;;;;45.35;20.13;;;;;;;17.63;63.30;93729.00;5091330;28;20056;-80
2021/09/25 07:36:43;;;;;;;26.85;13.13;;;;;;;17.76;62.62;93727.84;5091538;28;20078;-80
2021/09/25 07:39:11;;;;;;;23.90;11.85;;;;;;;17.76;60.76;93707.06;5091601;28;20047;-80
2021/09/25 07:41:38;;;;;;;10.07;4.80;;;;;;;18.05;55.94;93737.25;5090910;28;20063;-81
2021/09/25 07:44:05;;;;;;;18.90;8.70;;;;;;;18.10;57.67;93718.38;5091381;28;20115;-82
2021/09/25 07:46:32;;;;;;;17.40;8.43;;;;;;;18.42;58.07;93739.25;5091236;28;20044;-82
2021/09/25 07:48:59;;;;;;;16.45;8.40;;;;;;;18.60;54.79;93729.53;5090839;28;20079;-82
2021/09/25 07:51:26;;;;;;;18.08;8.77;;;;;;;18.67;55.20;93737.94;5091151;28;20048;-81
2021/09/25 07:53:53;;;;;;;14.32;6.70;;;;;;;18.85;55.46;93733.38;5090962;28;20047;-81
2021/09/25 07:56:22;;;;;;;7.03;4.47;;;;;;;18.96;54.50;93742.03;5091037;28;20089;-81
2021/09/25 07:58:49;;;;;;;5.38;2.67;;;;;;;19.05;52.89;93737.19;5089980;28;20051;-81
2021/09/25 08:01:16;;;;;;;6.47;3.05;;;;;;;18.77;53.70;93736.44;5090417;28;20055;-81
2021/09/25 08:03:43;;;;;;;5.50;2.70;;;;;;;18.83;53.10;93725.03;5090807;28;20044;-80
2021/09/25 08:06:11;;;;;;;6.03;3.13;;;;;;;19.11;52.98;93741.41;5090610;28;20090;-80
2021/09/25 08:08:38;;;;;;;5.50;3.72;;;;;;;19.29;52.90;93736.81;5090572;28;20056;-80
2021/09/25 08:11:04;;;;;;;6.45;3.30;;;;;;;19.34;52.44;93729.03;5090774;28;20424;-80
2021/09/25 08:13:33;;;;;;;5.35;3.08;;;;;;;19.49;52.96;93716.09;5090542;28;20044;-80
2021/09/25 08:16:00;;;;;;;5.00;3.08;;;;;;;19.72;52.50;93742.78;5090191;28;20056;-80
2021/09/25 08:18:28;;;;;;;5.68;3.20;;;;;;;19.67;52.47;93708.13;5090365;28;20055;-81
2021/09/25 08:20:55;;;;;;;3.47;2.33;;;;;;;19.79;50.91;93724.34;5090186;28;21196;-80
2021/09/25 08:23:23;;;;;;;4.60;2.40;;;;;;;20.14;51.69;93728.13;5090547;28;20048;-81
2021/09/25 08:25:50;;;;;;;4.93;2.58;;;;;;;20.33;49.48;93730.28;5090513;28;20126;-81
2021/09/25 08:28:17;;;;;;;4.93;2.50;;;;;;;20.29;50.51;93729.97;5090329;28;20070;-81
2021/09/25 08:30:49;;;;;;;4.32;2.25;;;;;;;20.47;51.30;93730.56;5088947;28;20067;-81
2021/09/25 08:33:15;;;;;;;6.95;2.92;;;;;;;20.52;49.65;93729.78;5090042;28;20141;-81
2021/09/25 08:35:42;;;;;;;5.93;2.42;;;;;;;20.65;50.81;93724.03;5090791;28;20097;-81
2021/09/25 08:38:09;;;;;;;4.25;2.78;;;;;;;20.43;49.84;93703.41;5090602;28;20431;-81
2021/09/25 08:40:37;;;;;;;5.97;3.42;;;;;;;20.45;48.65;93696.09;5090396;28;20181;-81
2021/09/25 08:43:04;;;;;;;6.68;2.90;;;;;;;20.81;49.68;93729.28;5089901;28;20052;-82
2021/09/25 08:45:31;;;;;;;5.70;2.88;;;;;;;21.03;50.16;93718.59;5090181;28;20093;-81
2021/09/25 08:47:59;;;;;;;6.55;2.65;;;;;;;21.16;50.14;93713.88;5089832;28;20420;-80
2021/09/25 08:50:27;;;;;;;5.20;2.85;;;;;;;21.10;49.63;93715.72;5089847;28;20044;-81
2021/09/25 08:52:54;;;;;;;5.78;3.17;;;;;;;21.29;49.32;93723.00;5090019;28;20048;-81
2021/09/25 08:55:21;;;;;;;3.70;2.42;;;;;;;21.30;49.76;93722.72;5090304;28;20058;-81
2021/09/25 08:57:48;;;;;;;4.85;2.80;;;;;;;21.39;50.73;93685.63;5089866;28;20094;-81
2021/09/25 09:00:38;;;;;;;4.40;2.53;;;;;;;21.68;48.56;93727.63;5089970;28;20040;-81
2021/09/25 09:03:30;;;;;;;26.67;15.75;;;;;;;21.92;47.58;93728.84;5085790;28;20048;-81
2021/09/25 09:06:10;;;;;;;8.50;5.07;;;;;;;22.10;47.36;93730.88;5089400;28;20067;-81
2021/09/25 09:08:38;;;;;;;5.45;2.92;;;;;;;21.59;47.11;93710.91;5089806;28;20100;-81
2021/09/25 09:11:06;;;;;;;4.50;2.92;;;;;;;21.48;48.21;93724.00;5090169;28;20455;-81
2021/09/25 09:13:34;;;;;;;5.43;2.92;;;;;;;21.98;48.36;93718.13;5089965;28;20097;-81
2021/09/25 09:16:03;;;;;;;4.22;2.63;;;;;;;22.16;48.33;93682.72;5089196;28;20497;-81
2021/09/25 09:18:32;;;;;;;5.15;2.72;;;;;;;22.27;46.03;93696.50;5089640;28;20079;-82
2021/09/25 09:21:04;;;;;;;5.28;2.45;;;;;;;22.40;46.80;93708.22;5089238;28;20680;-80
2021/09/25 09:23:32;;;;;;;4.85;3.30;;;;;;;22.50;46.43;93712.59;5089424;28;20497;-81
2021/09/25 09:25:59;;;;;;;6.13;3.28;;;;;;;22.80;46.01;93715.28;5089193;28;20047;-81
2021/09/25 09:28:31;;;;;;;5.10;2.20;;;;;;;22.90;45.18;93706.56;5089460;28;20044;-81
2021/09/25 09:31:00;;;;;;;5.22;2.10;;;;;;;23.13;45.87;93709.53;5089204;28;20497;-81
2021/09/25 09:33:34;;;;;;;5.30;2.35;;;;;;;23.21;44.39;93709.72;5089508;28;20052;-82
2021/09/25 09:36:25;;;;;;;5.72;2.53;;;;;;;23.59;46.01;93718.78;5089346;28;20389;-81
2021/09/25 09:38:54;;;;;;;4.53;2.70;;;;;;;23.69;43.39;93707.44;5089533;28;20394;-81
2021/09/25 09:41:24;;;;;;;3.50;2.15;;;;;;;23.03;44.44;93702.53;5089066;28;20489;-81
2021/09/25 09:43:52;;;;;;;3.78;2.30;;;;;;;23.51;45.26;93714.19;5089373;28;20048;-81
2021/09/25 09:46:20;;;;;;;4.43;2.15;;;;;;;23.85;44.88;93718.53;5089543;28;20447;-81
2021/09/25 09:48:48;;;;;;;4.30;1.90;;;;;;;24.06;43.92;93719.03;5089392;28;20052;-81
2021/09/25 09:51:15;;;;;;;3.65;1.98;;;;;;;23.99;43.58;93718.63;5089162;28;20468;-80
2021/09/25 09:53:45;;;;;;;4.00;2.28;;;;;;;24.28;42.83;93715.13;5088863;28;20048;-82
2021/09/25 09:56:23;;;;;;;3.35;1.92;;;;;;;24.47;42.53;93719.56;5089342;28;20102;-81
2021/09/25 09:58:58;;;;;;;3.88;2.30;;;;;;;24.46;43.47;93715.41;5089567;28;20040;-81
2021/09/25 10:01:26;;;;;;;4.50;2.50;;;;;;;24.70;42.38;93704.81;5091476;28;20703;-81
2021/09/25 10:03:54;;;;;;;5.60;2.00;;;;;;;24.03;41.90;93711.75;5089316;28;20055;-81
2021/09/25 10:06:21;;;;;;;3.17;2.00;;;;;;;24.22;43.65;93709.16;5089165;28;20052;-81
2021/09/25 10:08:48;;;;;;;3.50;1.67;;;;;;;24.41;42.45;93706.53;5089401;28;20105;-81
2021/09/25 10:11:17;;;;;;;2.75;1.80;;;;;;;24.41;42.77;93714.44;5089215;28;20056;-82
2021/09/25 10:13:44;;;;;;;5.93;1.95;;;;;;;24.47;42.05;93704.63;5088965;28;20573;-81
2021/09/25 10:16:12;;;;;;;3.60;2.00;;;;;;;24.54;41.89;93691.91;5089174;28;20071;-81
2021/09/25 10:18:40;;;;;;;6.40;2.72;;;;;;;24.92;42.11;93701.59;5088550;28;20059;-81
2021/09/25 10:21:11;;;;;;;3.97;1.85;;;;;;;25.00;40.86;93673.88;5072145;28;20059;-80
2021/09/25 10:23:43;;;;;;;3.55;2.05;;;;;;;25.11;41.48;93690.25;5092854;28;20134;-80
2021/09/25 10:26:10;;;;;;;2.78;1.95;;;;;;;25.32;41.90;93688.03;5092576;28;20127;-80
2021/09/25 10:28:37;;;;;;;3.30;1.65;;;;;;;25.63;40.54;93701.72;5092765;28;20097;-80
2021/09/25 10:31:04;;;;;;;5.22;1.90;;;;;;;25.74;40.29;93674.16;5092653;28;20052;-81
2021/09/25 10:33:31;;;;;;;3.40;2.00;;;;;;;26.05;38.68;93699.81;5093349;28;20052;-80
2021/09/25 10:35:58;;;;;;;5.20;2.20;;;;;;;25.97;37.30;93692.63;5093005;28;20048;-80
2021/09/25 10:38:35;;;;;;;2.88;1.70;;;;;;;26.19;40.19;93693.75;5093038;28;20052;-80
2021/09/25 10:41:18;;;;;;;3.25;1.85;;;;;;;26.38;39.75;93683.13;5092931;28;20059;-81
2021/09/25 10:43:46;;;;;;;4.90;1.90;;;;;;;26.49;39.82;93676.53;5091300;28;20097;-80
2021/09/25 10:46:14;;;;;;;3.60;1.77;;;;;;;26.22;38.27;93690.53;5093215;28;20433;-80
2021/09/25 10:48:47;;;;;;;2.83;1.50;;;;;;;24.99;38.08;93663.66;5092525;28;20129;-80
2021/09/25 10:51:16;;;;;;;5.38;2.00;;;;;;;25.34;38.81;93666.72;5092520;28;20184;-80
2021/09/25 10:53:46;;;;;;;2.40;1.50;;;;;;;25.55;38.73;93680.28;5092267;28;20512;-80
2021/09/25 10:56:19;;;;;;;2.97;1.98;;;;;;;25.48;40.48;93671.97;5092617;28;20412;-80
2021/09/25 10:58:55;;;;;;;3.33;1.85;;;;;;;25.87;40.65;93673.34;5092502;28;20439;-80
2021/09/25 11:01:32;;;;;;;7.35;3.03;;;;;;;26.00;39.54;93669.13;5092642;28;20052;-80
2021/09/25 11:04:08;;;;;;;4.90;2.30;;;;;;;25.14;39.83;93663.41;5092350;28;20056;-80
2021/09/25 11:06:49;;;;;;;;;;;;;;;25.65;40.27;93675.91;5092402;28;20126;-79
2021/09/25 11:09:26;;;;;;;8.73;2.00;;;;;;;25.73;39.73;93662.06;5091366;28;19923;-79
2021/09/25 11:11:54;;;;;;;4.32;1.85;;;;;;;26.08;40.42;93659.75;5079811;28;20408;-80
2021/09/25 11:14:24;;;;;;;3.20;1.52;;;;;;;26.23;37.94;93666.56;5082602;28;20059;-80
2021/09/25 11:17:05;;;;;;;2.97;1.73;;;;;;;25.29;38.73;93656.28;5082582;28;20090;-80
2021/09/25 11:19:57;;;;;;;3.08;1.50;;;;;;;24.60;40.88;93660.31;5080254;28;20491;-80
2021/09/25 11:22:31;;;;;;;2.60;1.63;;;;;;;24.79;41.77;93658.44;5081758;28;20498;-79
2021/09/25 11:25:04;;;;;;;2.75;1.63;;;;;;;24.97;39.49;93663.94;5080739;28;20044;-80
2021/09/25 11:27:32;;;;;;;3.50;1.80;;;;;;;24.81;40.84;93661.56;5079302;28;20055;-80
2021/09/25 11:30:09;;;;;;;2.53;1.67;;;;;;;25.35;41.89;93655.91;5076512;28;20109;-80
2021/09/25 11:32:39;;;;;;;3.35;1.60;;;;;;;25.77;40.86;93652.50;5081141;28;20120;-80
2021/09/25 11:35:08;;;;;;;5.28;2.28;;;;;;;26.17;40.19;93651.16;5076234;28;20051;-80
2021/09/25 11:37:36;;;;;;;4.30;1.40;;;;;;;26.39;39.04;93643.28;5084433;28;20044;-80